Terminal Aerodrome Forecast
Issued by NWS Mobile, AL

Home | Current Version | Previous Version | Text Only | Print | Product List | Glossary On
Versions: 1 2 3 4 5 6 7 8 9 10 11 12 13 14 15 16 17 18 19 20 21 22
000
FTUS44 KMOB 181100 RRA
TAFPNS
TAF
KPNS 181157Z 1812/1912 01004KT P6SM SCT250
     FM181500 04005KT P6SM SCT100 BKN250
     FM190100 36003KT P6SM BKN080=

USA.gov is the U.S. government's official web portal to all federal, state and local government web resources and services.